createdAt,value
2022-10-05T00:00:32.114Z,100872.59
2022-10-05T00:03:00.672Z,100877.94
2022-10-05T00:05:32.871Z,100876.91
2022-10-05T00:08:13.158Z,100874.22
2022-10-05T00:10:42.566Z,100873.63
2022-10-05T00:13:15.323Z,100868.88
2022-10-05T00:15:45.215Z,100876.28
2022-10-05T00:18:17.845Z,100875.84
2022-10-05T00:20:47.137Z,100876.09
2022-10-05T00:23:20.971Z,100863.53
2022-10-05T00:25:49.302Z,100864.56
2022-10-05T00:28:21.673Z,100867.03
2022-10-05T00:30:51.106Z,100869.69
2022-10-05T00:33:19.062Z,100862.72
2022-10-05T00:35:47.621Z,100860.03
2022-10-05T00:38:15.825Z,100868.88
2022-10-05T00:40:59.874Z,100864.09
2022-10-05T00:43:52.317Z,100859.81
2022-10-05T00:46:27.591Z,100857.69
2022-10-05T00:49:06.112Z,100858.75
2022-10-05T00:51:37.675Z,100855.25
2022-10-05T00:54:24.126Z,100849.09
2022-10-05T00:57:12.600Z,100846.19
2022-10-05T00:59:50.891Z,100847.78
2022-10-05T01:02:27.152Z,100846.97
2022-10-05T01:05:00.609Z,100848.03
2022-10-05T01:07:40.214Z,100855.25
2022-10-05T01:10:16.694Z,100857.94
2022-10-05T01:12:50.892Z,100856.06
2022-10-05T01:15:27.028Z,100857.94
2022-10-05T01:18:04.823Z,100853.63
2022-10-05T01:20:44.543Z,100847.47
2022-10-05T01:23:36.262Z,100830.63
2022-10-05T01:26:17.904Z,100833.47
2022-10-05T01:28:53.906Z,100835.59
2022-10-05T01:31:29.244Z,100834.78
2022-10-05T01:34:00.155Z,100825.97
2022-10-05T01:36:35.801Z,100827.00
2022-10-05T01:39:14.195Z,100823.75
2022-10-05T01:41:48.758Z,100817.25
2022-10-05T01:44:23.440Z,100812.97
2022-10-05T01:46:58.603Z,100806.25
2022-10-05T01:49:38.444Z,100802.16
2022-10-05T01:52:22.246Z,100801.34
2022-10-05T01:54:59.568Z,100788.25
2022-10-05T01:57:40.624Z,100795.66
2022-10-05T02:00:12.534Z,100798.84
2022-10-05T02:02:45.655Z,100798.25
2022-10-05T02:05:18.296Z,100801.97
2022-10-05T02:07:52.741Z,100799.78
2022-10-05T02:10:27.782Z,100798.16
2022-10-05T02:13:12.185Z,100794.94
2022-10-05T02:15:46.201Z,100787.97
2022-10-05T02:18:21.069Z,100777.72
2022-10-05T02:20:51.675Z,100784.13
2022-10-05T02:23:25.033Z,100780.06
2022-10-05T02:25:56.955Z,100773.34
2022-10-05T02:28:31.097Z,100768.22
2022-10-05T02:31:07.415Z,100768.72
2022-10-05T02:33:36.923Z,100773.72
2022-10-05T02:36:15.564Z,100767.56
2022-10-05T02:38:57.569Z,100766.41
2022-10-05T02:41:40.170Z,100772.00
2022-10-05T02:44:18.940Z,100765.25
2022-10-05T02:46:58.199Z,100749.47
2022-10-05T02:49:38.018Z,100750.53
2022-10-05T02:52:12.939Z,100741.69
2022-10-05T02:55:06.221Z,100743.56
2022-10-05T02:57:40.542Z,100746.25
2022-10-05T03:00:14.387Z,100748.91
2022-10-05T03:02:50.628Z,100750.19
2022-10-05T03:05:25.189Z,100740.31
2022-10-05T03:07:59.752Z,100740.31
2022-10-05T03:10:35.272Z,100740.31
2022-10-05T03:13:08.515Z,100734.97
2022-10-05T03:16:04.605Z,100738.69
2022-10-05T03:18:50.287Z,100732.06
2022-10-05T03:21:32.162Z,100736.59
2022-10-05T03:24:15.006Z,100731.25
2022-10-05T03:26:54.369Z,100735.75
2022-10-05T03:29:48.371Z,100730.41
2022-10-05T03:32:29.173Z,100733.94
2022-10-05T03:35:05.657Z,100732.28
2022-10-05T03:37:47.297Z,100723.25
2022-10-05T03:40:27.860Z,100732.88
2022-10-05T03:43:06.021Z,100724.03
2022-10-05T03:45:43.344Z,100725.06
2022-10-05T03:48:16.829Z,100716.25
2022-10-05T03:51:06.508Z,100723.47
2022-10-05T03:53:43.596Z,100713.56
2022-10-05T03:56:17.072Z,100720.78
2022-10-05T03:58:53.315Z,100722.19
2022-10-05T04:01:27.352Z,100722.41
2022-10-05T04:04:01.479Z,100716.84
2022-10-05T04:06:36.763Z,100715.78
2022-10-05T04:09:11.805Z,100711.50
2022-10-05T04:11:46.130Z,100716.03
2022-10-05T04:14:20.328Z,100716.59
2022-10-05T04:16:53.811Z,100717.41
2022-10-05T04:19:26.218Z,100709.97
2022-10-05T04:22:03.057Z,100709.72
2022-10-05T04:24:37.259Z,100699.84
2022-10-05T04:27:12.899Z,100699.59
2022-10-05T04:29:46.504Z,100696.13
2022-10-05T04:32:37.626Z,100703.06
2022-10-05T04:35:26.592Z,100692.97
2022-10-05T04:38:05.110Z,100692.97
2022-10-05T04:40:49.754Z,100686.56
2022-10-05T04:43:27.193Z,100680.41
2022-10-05T04:46:18.981Z,100684.44
2022-10-05T04:49:04.041Z,100678.88
2022-10-05T04:51:38.720Z,100678.88
2022-10-05T04:54:19.523Z,100670.88
2022-10-05T04:56:53.365Z,100665.75
2022-10-05T04:59:56.007Z,100666.34
2022-10-05T05:02:34.892Z,100664.47
2022-10-05T05:05:23.613Z,100662.03
2022-10-05T05:08:00.822Z,100659.38
2022-10-05T05:11:11.331Z,100655.84
2022-10-05T05:14:08.860Z,100652.16
2022-10-05T05:16:40.548Z,100654.03
2022-10-05T05:19:19.545Z,100651.09
2022-10-05T05:21:57.467Z,100651.91
2022-10-05T05:24:38.516Z,100643.88
2022-10-05T05:27:30.966Z,100643.88
2022-10-05T05:30:04.313Z,100646.56
2022-10-05T05:32:42.476Z,100637.47
2022-10-05T05:35:40.202Z,100650.84
2022-10-05T05:38:23.760Z,100638.06
2022-10-05T05:41:02.043Z,100635.41
2022-10-05T05:43:42.486Z,100634.09
2022-10-05T05:46:18.231Z,100634.91
2022-10-05T05:48:48.490Z,100637.56
2022-10-05T05:51:22.583Z,100634.41
2022-10-05T05:53:54.375Z,100629.06
2022-10-05T05:56:28.938Z,100641.38
2022-10-05T05:59:07.101Z,100623.72
2022-10-05T06:01:44.190Z,100629.63
2022-10-05T06:04:17.184Z,100634.50
2022-10-05T06:06:49.518Z,100626.47
2022-10-05T06:09:24.147Z,100628.91
2022-10-05T06:11:55.116Z,100624.94
2022-10-05T06:14:30.873Z,100633.78
2022-10-05T06:17:03.038Z,100628.72
2022-10-05T06:19:35.683Z,100623.16
2022-10-05T06:22:08.086Z,100624.94
2022-10-05T06:24:40.491Z,100632.00
2022-10-05T06:27:19.123Z,100637.66
2022-10-05T06:30:04.968Z,100629.41
2022-10-05T06:32:35.209Z,100626.81
2022-10-05T06:35:14.094Z,100637.00
2022-10-05T06:37:58.982Z,100627.94
2022-10-05T06:40:40.135Z,100632.47
2022-10-05T06:43:20.826Z,100625.00
2022-10-05T06:46:02.015Z,100634.91
2022-10-05T06:48:45.910Z,100625.34
2022-10-05T06:51:23.593Z,100621.59
2022-10-05T06:54:04.268Z,100625.88
2022-10-05T06:56:39.679Z,100629.97
2022-10-05T06:59:15.789Z,100632.41
2022-10-05T07:01:57.843Z,100624.13
2022-10-05T07:04:43.639Z,100625.50
2022-10-05T07:07:16.158Z,100630.34
2022-10-05T07:09:59.007Z,100628.25
2022-10-05T07:12:46.643Z,100631.50
2022-10-05T07:15:26.855Z,100632.63
2022-10-05T07:18:06.809Z,100628.88
2022-10-05T07:20:48.926Z,100633.75
2022-10-05T07:23:30.931Z,100627.88
2022-10-05T07:26:07.055Z,100631.16
2022-10-05T07:28:46.418Z,100634.38
2022-10-05T07:31:24.154Z,100629.03
2022-10-05T07:34:02.860Z,100627.47
2022-10-05T07:36:55.210Z,100630.16
2022-10-05T07:39:58.674Z,100631.28
2022-10-05T07:42:31.308Z,100639.63
2022-10-05T07:45:08.872Z,100641.72
2022-10-05T07:47:41.154Z,100633.22
2022-10-05T07:50:21.357Z,100636.69
2022-10-05T07:52:57.119Z,100638.06
2022-10-05T07:55:27.723Z,100637.81
2022-10-05T07:58:06.372Z,100630.59
2022-10-05T08:00:52.085Z,100627.66
2022-10-05T08:03:30.730Z,100626.59
2022-10-05T08:06:02.890Z,100627.72
2022-10-05T08:08:41.533Z,100632.59
2022-10-05T08:11:18.493Z,100630.47
2022-10-05T08:13:52.815Z,100622.19
2022-10-05T08:16:21.519Z,100633.72
2022-10-05T08:18:58.100Z,100636.47
2022-10-05T08:21:36.023Z,100629.25
2022-10-05T08:24:14.426Z,100626.31
2022-10-05T08:26:52.466Z,100632.53
2022-10-05T08:29:26.189Z,100628.22
2022-10-05T08:31:58.471Z,100629.84
2022-10-05T08:34:34.113Z,100629.34
2022-10-05T08:37:08.437Z,100617.31
2022-10-05T08:39:40.722Z,100618.44
2022-10-05T08:42:46.244Z,100623.31
2022-10-05T08:45:51.824Z,100623.06
2022-10-05T08:49:10.485Z,100626.03
2022-10-05T08:51:58.372Z,100609.47
2022-10-05T08:54:55.853Z,100614.59
2022-10-05T08:57:55.999Z,100623.44
2022-10-05T09:00:28.626Z,100613.53
2022-10-05T09:03:18.072Z,100616.75
2022-10-05T09:06:27.447Z,100608.47
2022-10-05T09:09:26.359Z,100617.06
2022-10-05T09:12:17.483Z,100611.19
2022-10-05T09:15:13.703Z,100613.38
2022-10-05T09:18:23.713Z,100602.06
2022-10-05T09:20:54.690Z,100611.25
2022-10-05T09:23:40.662Z,100607.25
2022-10-05T09:26:14.013Z,100608.06
2022-10-05T09:29:02.868Z,100611.28
2022-10-05T09:32:06.214Z,100604.91
2022-10-05T09:35:08.127Z,100598.78
2022-10-05T09:38:10.421Z,100598.25
2022-10-05T09:41:14.130Z,100596.41
2022-10-05T09:44:15.332Z,100586.81
2022-10-05T09:47:12.149Z,100595.47
2022-10-05T09:50:13.685Z,100577.28
2022-10-05T09:53:19.199Z,100578.94
2022-10-05T09:59:38.757Z,100565.63
2022-10-05T10:02:54.137Z,100563.03
2022-10-05T10:05:52.793Z,100558.53
2022-10-05T10:08:38.767Z,100547.63
2022-10-05T10:11:38.887Z,100550.88
2022-10-05T10:14:39.486Z,100548.00
2022-10-05T10:17:21.244Z,100536.75
2022-10-05T10:20:23.311Z,100549.41
2022-10-05T10:23:14.775Z,100540.84
2022-10-05T10:26:39.612Z,100538.22
2022-10-05T10:29:48.383Z,100527.50
2022-10-05T10:32:37.938Z,100531.78
2022-10-05T10:35:34.757Z,100527.22
2022-10-05T10:38:28.705Z,100531.00
2022-10-05T10:41:23.925Z,100528.59
2022-10-05T10:44:25.124Z,100538.78
2022-10-05T10:47:28.262Z,100530.19
2022-10-05T10:50:19.949Z,100529.13
2022-10-05T10:53:06.399Z,100517.84
2022-10-05T10:55:49.843Z,100528.03
2022-10-05T10:59:00.290Z,100525.34
2022-10-05T11:01:36.201Z,100527.78
2022-10-05T11:04:31.538Z,100526.16
2022-10-05T11:07:27.055Z,100510.28
2022-10-05T11:10:22.639Z,100501.41
2022-10-05T11:13:38.233Z,100502.22
2022-10-05T11:16:38.340Z,100511.66
2022-10-05T11:19:39.997Z,100509.47
2022-10-05T11:22:47.958Z,100502.78
2022-10-05T11:25:46.998Z,100508.69
2022-10-05T11:29:00.426Z,100496.84
2022-10-05T11:32:05.480Z,100510.28
2022-10-05T11:34:57.547Z,100508.41
2022-10-05T11:37:50.008Z,100501.13
2022-10-05T11:40:54.325Z,100504.63
2022-10-05T11:43:51.554Z,100509.19
2022-10-05T11:46:28.378Z,100496.28
2022-10-05T11:49:17.121Z,100492.22
2022-10-05T11:51:57.088Z,100494.88
2022-10-05T11:55:09.201Z,100474.72
2022-10-05T11:57:39.565Z,100471.47
2022-10-05T12:00:15.575Z,100473.56
2022-10-05T12:03:01.948Z,100462.25
2022-10-05T12:05:37.531Z,100468.72
2022-10-05T12:08:23.521Z,100461.16
2022-10-05T12:11:05.033Z,100445.50
2022-10-05T12:13:43.196Z,100454.94
2022-10-05T12:16:19.028Z,100451.66
2022-10-05T12:18:57.506Z,100456.78
2022-10-05T12:21:33.961Z,100453.00
2022-10-05T12:24:10.801Z,100450.88
2022-10-05T12:26:45.485Z,100455.72
2022-10-05T12:29:23.392Z,100435.81
2022-10-05T12:32:00.620Z,100433.09
2022-10-05T12:34:43.435Z,100435.25
2022-10-05T12:37:33.481Z,100447.91
2022-10-05T12:40:08.055Z,100450.88
2022-10-05T12:42:42.502Z,100444.94
2022-10-05T12:45:25.313Z,100455.69
2022-10-05T12:48:12.506Z,100454.06
2022-10-05T12:50:44.542Z,100454.09
2022-10-05T12:53:40.707Z,100464.09
2022-10-05T12:56:11.246Z,100461.44
2022-10-05T12:58:51.857Z,100466.25
2022-10-05T13:01:34.517Z,100470.56
2022-10-05T13:04:18.746Z,100467.66
2022-10-05T13:06:55.593Z,100484.91
2022-10-05T13:09:30.274Z,100487.03
2022-10-05T13:12:05.347Z,100494.59
2022-10-05T13:14:48.180Z,100499.44
2022-10-05T13:17:24.035Z,100495.41
2022-10-05T13:20:00.769Z,100512.38
2022-10-05T13:22:37.002Z,100522.09
2022-10-05T13:25:26.081Z,100526.69
2022-10-05T13:28:11.005Z,100522.41
2022-10-05T13:30:44.810Z,100532.88
2022-10-05T13:33:24.434Z,100553.31
2022-10-05T13:36:03.169Z,100554.41
2022-10-05T13:38:45.185Z,100549.00
2022-10-05T13:41:27.556Z,100554.41
2022-10-05T13:44:10.513Z,100565.69
2022-10-05T13:46:47.857Z,100565.66
2022-10-05T13:49:30.920Z,100573.75
2022-10-05T13:52:08.945Z,100568.91
2022-10-05T13:54:47.973Z,100569.41
2022-10-05T13:57:27.081Z,100569.41
2022-10-05T14:00:01.149Z,100573.97
2022-10-05T14:02:33.202Z,100566.72
2022-10-05T14:05:16.426Z,100574.47
2022-10-05T14:07:53.596Z,100564.81
2022-10-05T14:10:36.695Z,100577.94
2022-10-05T14:13:24.132Z,100564.47
2022-10-05T14:16:05.460Z,100563.13
2022-10-05T14:18:35.501Z,100564.47
2022-10-05T14:21:19.046Z,100578.97
2022-10-05T14:23:48.963Z,100579.22
2022-10-05T14:26:33.457Z,100580.31
2022-10-05T14:29:04.569Z,100577.34
2022-10-05T14:31:36.617Z,100571.97
2022-10-05T14:34:32.631Z,100567.94
2022-10-05T14:37:11.169Z,100581.63
2022-10-05T14:39:44.279Z,100578.69
2022-10-05T14:42:19.898Z,100579.47
2022-10-05T14:45:00.720Z,100573.31
2022-10-05T14:47:32.872Z,100566.34
2022-10-05T14:50:18.234Z,100565.03
2022-10-05T14:53:06.112Z,100565.53
2022-10-05T14:56:02.768Z,100565.03
2022-10-05T14:59:05.179Z,100564.50
2022-10-05T15:01:36.695Z,100562.91
2022-10-05T15:04:26.196Z,100552.16
2022-10-05T15:07:07.820Z,100564.50
2022-10-05T15:09:50.560Z,100560.78
2022-10-05T15:12:28.112Z,100564.81
2022-10-05T15:15:05.058Z,100558.91
2022-10-05T15:17:41.054Z,100560.78
2022-10-05T15:20:25.230Z,100547.59
2022-10-05T15:23:03.378Z,100553.78
2022-10-05T15:25:37.946Z,100559.94
2022-10-05T15:28:18.189Z,100560.22
2022-10-05T15:30:55.680Z,100568.56
2022-10-05T15:33:33.032Z,100563.19
2022-10-05T15:36:10.244Z,100568.28
2022-10-05T15:38:50.561Z,100558.63
2022-10-05T15:41:25.736Z,100575.81
2022-10-05T15:44:06.550Z,100569.38
2022-10-05T15:46:42.326Z,100570.44
2022-10-05T15:49:25.377Z,100569.66
2022-10-05T15:52:03.778Z,100577.69
2022-10-05T15:54:55.852Z,100580.13
2022-10-05T15:57:35.455Z,100585.50
2022-10-05T16:00:12.178Z,100574.22
2022-10-05T16:02:47.388Z,100587.66
2022-10-05T16:05:52.260Z,100573.66
2022-10-05T16:08:55.634Z,100587.09
2022-10-05T16:11:38.601Z,100593.25
2022-10-05T16:14:21.303Z,100604.81
2022-10-05T16:17:00.005Z,100602.13
2022-10-05T16:19:33.932Z,100606.69
2022-10-05T16:22:08.369Z,100598.34
2022-10-05T16:24:59.144Z,100608.56
2022-10-05T16:27:37.176Z,100618.25
2022-10-05T16:30:11.595Z,100607.50
2022-10-05T16:32:44.885Z,100623.09
2022-10-05T16:35:26.038Z,100614.22
2022-10-05T16:38:16.288Z,100622.28
2022-10-05T16:41:01.030Z,100618.25
2022-10-05T16:43:42.251Z,100620.69
2022-10-05T16:46:22.341Z,100627.38
2022-10-05T16:48:58.052Z,100631.13
2022-10-05T16:51:33.691Z,100631.94
2022-10-05T16:54:14.017Z,100628.69
2022-10-05T16:56:46.300Z,100625.44
2022-10-05T16:59:57.993Z,100624.38
2022-10-05T17:02:46.115Z,100630.81
2022-10-05T17:05:32.745Z,100628.94
2022-10-05T17:08:17.550Z,100631.38
2022-10-05T17:11:03.874Z,100637.56
2022-10-05T17:14:16.212Z,100631.91
2022-10-05T17:16:57.118Z,100631.94
2022-10-05T17:19:47.885Z,100641.88
2022-10-05T17:22:26.520Z,100646.47
2022-10-05T17:25:03.838Z,100648.88
2022-10-05T17:27:36.648Z,100661.75
2022-10-05T17:30:36.650Z,100656.13
2022-10-05T17:33:22.091Z,100656.94
2022-10-05T17:36:13.351Z,100663.91
2022-10-05T17:38:53.180Z,100663.66
2022-10-05T17:41:24.498Z,100668.25
2022-10-05T17:44:27.019Z,100686.47
2022-10-05T17:46:58.586Z,100684.06
2022-10-05T17:50:15.268Z,100684.88
2022-10-05T17:53:03.797Z,100692.13
2022-10-05T17:55:44.934Z,100691.84
2022-10-05T17:59:01.361Z,100697.22
2022-10-05T18:01:36.111Z,100692.66
2022-10-05T18:04:34.733Z,100702.09
2022-10-05T18:07:07.845Z,100709.06
2022-10-05T18:09:56.318Z,100693.22
2022-10-05T18:12:45.209Z,100701.53
2022-10-05T18:15:48.921Z,100707.72
2022-10-05T18:18:39.677Z,100711.78
2022-10-05T18:21:25.388Z,100716.06
2022-10-05T18:24:30.456Z,100703.22
2022-10-05T18:27:13.495Z,100714.75
2022-10-05T18:30:06.221Z,100720.38
2022-10-05T18:32:49.179Z,100731.13
2022-10-05T18:35:25.997Z,100741.88
2022-10-05T18:38:05.359Z,100741.88
2022-10-05T18:40:44.505Z,100740.25
2022-10-05T18:43:29.853Z,100747.78
2022-10-05T18:46:22.808Z,100741.34
2022-10-05T18:49:03.728Z,100742.66
2022-10-05T18:51:42.571Z,100744.53
2022-10-05T18:54:26.483Z,100759.84
2022-10-05T18:56:56.021Z,100752.88
2022-10-05T18:59:40.578Z,100760.31
2022-10-05T19:02:21.558Z,100750.16
2022-10-05T19:05:03.850Z,100758.44
2022-10-05T19:07:45.620Z,100754.16
2022-10-05T19:10:25.666Z,100760.56
2022-10-05T19:13:05.493Z,100765.94
2022-10-05T19:15:46.725Z,100770.25
2022-10-05T19:18:43.429Z,100778.28
2022-10-05T19:21:25.425Z,100773.47
2022-10-05T19:24:35.982Z,100787.97
2022-10-05T19:27:09.350Z,100818.59
2022-10-05T19:29:58.073Z,100865.81
2022-10-05T19:32:35.037Z,100878.91
2022-10-05T19:35:20.870Z,100902.00
2022-10-05T19:37:53.918Z,100896.31
2022-10-05T19:40:29.998Z,100892.81
2022-10-05T19:43:18.960Z,100896.59
2022-10-05T19:45:59.819Z,100898.97
2022-10-05T19:48:36.609Z,100901.09
2022-10-05T19:51:13.448Z,100906.16
2022-10-05T19:53:47.407Z,100909.59
2022-10-05T19:56:20.938Z,100923.88
2022-10-05T19:58:50.435Z,100923.25
2022-10-05T20:01:27.755Z,100908.50
2022-10-05T20:03:58.097Z,100932.91
2022-10-05T20:06:27.138Z,100928.06
2022-10-05T20:09:00.784Z,100931.78
2022-10-05T20:11:29.915Z,100942.25
2022-10-05T20:14:23.310Z,100948.41
2022-10-05T20:17:44.447Z,100946.00
2022-10-05T20:20:31.714Z,100959.66
2022-10-05T20:23:21.753Z,100955.34
2022-10-05T20:26:11.567Z,100969.78
2022-10-05T20:28:40.077Z,100972.72
2022-10-05T20:31:10.297Z,100980.78
2022-10-05T20:33:40.600Z,100984.50
2022-10-05T20:36:11.329Z,100992.53
2022-10-05T20:38:41.146Z,100997.38
2022-10-05T20:41:10.007Z,100998.16
2022-10-05T20:43:40.131Z,101008.59
2022-10-05T20:46:10.252Z,101015.59
2022-10-05T20:48:38.693Z,101015.53
2022-10-05T20:51:07.856Z,101026.25
2022-10-05T20:53:37.741Z,101028.38
2022-10-05T20:56:06.419Z,101032.94
2022-10-05T20:58:35.830Z,101033.75
2022-10-05T21:01:20.115Z,101039.59
2022-10-05T21:03:49.148Z,101051.09
2022-10-05T21:06:18.067Z,101062.84
2022-10-05T21:08:47.721Z,101065.31
2022-10-05T21:11:16.756Z,101060.41
2022-10-05T21:13:46.274Z,101063.00
2022-10-05T21:16:17.458Z,101077.16
2022-10-05T21:18:47.971Z,101088.69
2022-10-05T21:21:17.844Z,101088.69
2022-10-05T21:23:47.723Z,101103.09
2022-10-05T21:26:16.653Z,101098.00
2022-10-05T21:28:45.410Z,101114.88
2022-10-05T21:31:13.691Z,101125.53
2022-10-05T21:33:41.868Z,101133.25
2022-10-05T21:36:11.017Z,101137.47
2022-10-05T21:38:39.254Z,101141.47
2022-10-05T21:41:09.338Z,101144.88
2022-10-05T21:43:38.146Z,101145.59
2022-10-05T21:46:07.374Z,101153.06
2022-10-05T21:48:39.347Z,101149.25
2022-10-05T21:51:10.545Z,101154.53
2022-10-05T21:53:42.591Z,101158.72
2022-10-05T21:56:15.711Z,101165.72
2022-10-05T21:58:47.395Z,101162.47
2022-10-05T22:01:22.260Z,101169.91
2022-10-05T22:03:52.683Z,101172.03
2022-10-05T22:06:21.619Z,101178.94
2022-10-05T22:08:51.132Z,101184.75
2022-10-05T22:11:23.174Z,101185.59
2022-10-05T22:13:54.012Z,101190.63
2022-10-05T22:16:26.100Z,101202.38
2022-10-05T22:18:55.605Z,101216.81
2022-10-05T22:21:25.094Z,101219.50
2022-10-05T22:23:54.767Z,101216.00
2022-10-05T22:26:25.710Z,101226.41
2022-10-05T22:28:57.402Z,101233.84
2022-10-05T22:31:26.633Z,101230.50
2022-10-05T22:33:55.225Z,101235.25
2022-10-05T22:36:25.351Z,101241.09
2022-10-05T22:38:54.685Z,101235.72
2022-10-05T22:41:25.621Z,101237.81
2022-10-05T22:43:55.722Z,101241.19
2022-10-05T22:46:24.243Z,101262.63
2022-10-05T22:48:52.994Z,101263.69
2022-10-05T22:51:22.133Z,101277.88
2022-10-05T22:53:50.699Z,101283.72
2022-10-05T22:56:20.010Z,101277.47
2022-10-05T22:58:51.928Z,101281.16
2022-10-05T23:01:21.617Z,101285.13
2022-10-05T23:03:50.604Z,101296.31
2022-10-05T23:06:22.279Z,101295.72
2022-10-05T23:08:51.076Z,101297.25
2022-10-05T23:11:24.439Z,101301.44
2022-10-05T23:13:56.014Z,101308.88
2022-10-05T23:16:27.339Z,101311.44
2022-10-05T23:18:56.238Z,101309.22
2022-10-05T23:21:26.735Z,101301.66
2022-10-05T23:23:56.598Z,101313.66
2022-10-05T23:26:27.477Z,101313.66
2022-10-05T23:28:58.999Z,101326.66
2022-10-05T23:31:32.357Z,101336.81
2022-10-05T23:34:02.596Z,101338.91
2022-10-05T23:36:33.115Z,101336.91
2022-10-05T23:39:03.582Z,101354.22
2022-10-05T23:41:33.015Z,101355.28
2022-10-05T23:44:03.599Z,101359.47
2022-10-05T23:46:33.821Z,101360.75
2022-10-05T23:49:03.466Z,101361.19
2022-10-05T23:51:34.443Z,101356.75
2022-10-05T23:54:03.701Z,101358.63
2022-10-05T23:56:32.643Z,101368.72
2022-10-05T23:59:04.692Z,101367.53
